Time;durP1;ratioP1;P1;durP2;ratioP2;P2;SDS_P1;SDS_P2;PMS_P1;PMS_P2;Temp;Humidity;BMP_temperature;BMP_pressure;BME280_temperature;BME280_humidity;BME280_pressure;Samples;Min_cycle;Max_cycle;Signal;HPM_P1;HPM_P2
2022/03/03 00:00:08;;;;;;;143.95;63.08;;;;;;;-3.19;60.51;100654.37;1635821;87;25559;-69
2022/03/03 00:02:36;;;;;;;136.50;58.65;;;;;;;-3.21;60.65;100649.81;1635840;87;25667;-69
2022/03/03 00:05:04;;;;;;;152.00;63.25;;;;;;;-3.22;60.62;100652.14;1604510;89;25466;-69
2022/03/03 00:07:31;;;;;;;135.05;59.15;;;;;;;-3.22;60.64;100648.17;1599691;89;27453;-69
2022/03/03 00:09:57;;;;;;;130.75;57.27;;;;;;;-3.25;60.60;100654.71;1599489;89;25679;-69
2022/03/03 00:12:24;;;;;;;126.40;54.00;;;;;;;-3.27;60.74;100651.47;1599647;89;25644;-70
2022/03/03 00:14:50;;;;;;;126.02;52.62;;;;;;;-3.28;60.88;100650.35;1610422;88;25712;-70
2022/03/03 00:17:17;;;;;;;127.00;52.13;;;;;;;-3.29;61.02;100654.00;1621498;88;25620;-70
2022/03/03 00:19:44;;;;;;;140.10;57.85;;;;;;;-3.30;61.08;100654.52;1621596;88;27328;-71
2022/03/03 00:22:11;;;;;;;157.10;66.22;;;;;;;-3.32;60.93;100640.70;1621507;88;25292;-70
2022/03/03 00:24:38;;;;;;;138.57;59.03;;;;;;;-3.30;61.06;100636.50;1642600;86;25538;-69
2022/03/03 00:27:06;;;;;;;128.70;54.95;;;;;;;-3.30;60.99;100629.87;1652376;86;25609;-70
2022/03/03 00:29:32;;;;;;;119.77;53.60;;;;;;;-3.32;60.43;100620.86;1652383;86;25714;-70
2022/03/03 00:31:59;;;;;;;121.22;52.85;;;;;;;-3.33;60.44;100619.22;1652424;86;27344;-70
2022/03/03 00:34:25;;;;;;;128.85;52.58;;;;;;;-3.33;60.52;100618.42;1663863;84;25492;-70
2022/03/03 00:36:52;;;;;;;122.95;50.35;;;;;;;-3.35;61.19;100611.17;1674046;85;25474;-69
2022/03/03 00:39:18;;;;;;;126.58;51.95;;;;;;;-3.38;60.92;100605.81;1682583;85;25817;-69
2022/03/03 00:41:45;;;;;;;118.72;50.95;;;;;;;-3.41;61.13;100600.41;1674055;85;25587;-70
2022/03/03 00:44:11;;;;;;;122.33;50.85;;;;;;;-3.44;60.46;100596.89;1682565;85;27939;-70
2022/03/03 00:46:39;;;;;;;119.82;50.95;;;;;;;-3.46;60.90;100586.20;1673947;85;25777;-70
2022/03/03 00:49:05;;;;;;;116.55;49.98;;;;;;;-3.48;60.73;100585.59;1682630;85;25621;-70
2022/03/03 00:51:34;;;;;;;120.62;52.10;;;;;;;-3.50;60.50;100588.97;1673950;85;25392;-70
2022/03/03 00:54:02;;;;;;;120.35;50.33;;;;;;;-3.53;61.37;100590.18;1662812;85;25454;-70
2022/03/03 00:56:28;;;;;;;126.50;50.78;;;;;;;-3.57;61.59;100588.47;1674085;85;27433;-70
2022/03/03 00:58:55;;;;;;;121.77;53.23;;;;;;;-3.52;62.08;100592.30;1604247;89;25493;-70
2022/03/03 01:01:21;;;;;;;123.87;53.17;;;;;;;-3.51;62.41;100589.98;1604335;89;25565;-70
2022/03/03 01:03:47;;;;;;;112.57;50.95;;;;;;;-3.48;62.54;100577.14;1604267;89;25734;-70
2022/03/03 01:06:14;;;;;;;127.60;53.08;;;;;;;-3.44;62.39;100573.08;1599008;89;25672;-69
2022/03/03 01:08:40;;;;;;;119.25;52.62;;;;;;;-3.41;62.35;100567.87;1622430;87;27452;-71
2022/03/03 01:11:08;;;;;;;119.70;52.13;;;;;;;-3.38;62.17;100561.64;1564336;89;25494;-70
2022/03/03 01:13:35;;;;;;;124.67;51.73;;;;;;;-3.34;62.06;100556.73;1606236;89;25711;-71
2022/03/03 01:16:02;;;;;;;127.12;52.85;;;;;;;-3.32;62.23;100562.66;1606010;89;25680;-70
2022/03/03 01:18:28;;;;;;;121.60;51.42;;;;;;;-3.28;62.62;100572.30;1600866;88;25815;-70
2022/03/03 01:20:55;;;;;;;126.65;52.58;;;;;;;-3.26;62.69;100566.28;1622492;87;27358;-70
2022/03/03 01:23:23;;;;;;;118.85;51.88;;;;;;;-3.23;62.71;100565.87;1656979;84;25444;-70
2022/03/03 01:25:49;;;;;;;119.90;51.95;;;;;;;-3.22;62.62;100571.44;1700502;84;25419;-71
2022/03/03 01:28:15;;;;;;;132.90;55.55;;;;;;;-3.22;62.62;100573.59;1700455;84;25677;-69
2022/03/03 01:30:42;;;;;;;126.78;52.38;;;;;;;-3.22;62.57;100568.80;1735948;82;25432;-69
2022/03/03 01:33:08;;;;;;;125.38;52.33;;;;;;;-3.23;62.41;100568.00;1714900;82;27400;-69
2022/03/03 01:35:35;;;;;;;124.20;54.50;;;;;;;-3.24;62.49;100565.55;1672167;85;25408;-70
2022/03/03 01:38:01;;;;;;;125.10;51.60;;;;;;;-3.26;62.44;100557.83;1672256;85;25551;-70
2022/03/03 01:40:28;;;;;;;122.90;51.90;;;;;;;-3.28;62.46;100565.17;1672183;85;25638;-70
2022/03/03 01:42:55;;;;;;;129.30;52.67;;;;;;;-3.30;62.42;100563.25;1735926;82;25645;-70
2022/03/03 01:45:21;;;;;;;121.05;53.87;;;;;;;-3.33;62.32;100564.98;1672224;85;27367;-70
2022/03/03 01:47:48;;;;;;;116.20;52.27;;;;;;;-3.40;62.27;100566.34;1672147;85;25412;-71
2022/03/03 01:50:15;;;;;;;119.17;51.83;;;;;;;-3.46;62.13;100567.16;1672190;85;25569;-71
2022/03/03 01:52:41;;;;;;;124.15;52.90;;;;;;;-3.49;62.42;100566.77;1735871;82;25714;-71
2022/03/03 01:55:11;;;;;;;121.53;51.60;;;;;;;-3.54;62.54;100566.59;1735949;82;25392;-70
2022/03/03 01:57:38;;;;;;;125.05;52.88;;;;;;;-3.60;62.48;100560.31;1652552;85;27245;-69
2022/03/03 02:00:08;;;;;;;120.62;52.65;;;;;;;-3.61;62.73;100558.67;1672190;85;25665;-70
2022/03/03 02:02:39;;;;;;;116.37;50.10;;;;;;;-3.67;62.70;100556.36;1672128;85;25618;-72
2022/03/03 02:05:07;;;;;;;109.35;49.95;;;;;;;-3.69;62.78;100558.93;1653695;86;25703;-69
2022/03/03 02:07:35;;;;;;;118.15;52.38;;;;;;;-3.73;62.89;100557.70;1653923;86;25484;-69
2022/03/03 02:10:04;;;;;;;119.15;49.83;;;;;;;-3.78;63.03;100555.19;1653789;86;28151;-71
2022/03/03 02:12:31;;;;;;;118.35;51.92;;;;;;;-3.83;62.85;100547.06;1630469;86;25697;-70
2022/03/03 02:14:59;;;;;;;120.70;50.83;;;;;;;-3.89;63.06;100545.23;1653678;86;25660;-70
2022/03/03 02:17:25;;;;;;;123.65;50.03;;;;;;;-3.92;63.03;100546.16;1652922;86;25622;-71
2022/03/03 02:19:52;;;;;;;121.13;50.03;;;;;;;-3.98;63.11;100547.30;1626011;86;25447;-71
2022/03/03 02:22:20;;;;;;;116.65;51.85;;;;;;;-4.03;63.01;100544.98;1653025;86;27871;-71
2022/03/03 02:24:46;;;;;;;123.00;53.45;;;;;;;-4.08;63.15;100548.23;1655305;86;25643;-71
2022/03/03 02:27:12;;;;;;;110.80;50.05;;;;;;;-4.10;63.56;100544.15;1677174;81;25554;-71
2022/03/03 02:29:39;;;;;;;121.00;51.90;;;;;;;-4.14;63.66;100542.43;1751684;81;26198;-71
2022/03/03 02:32:08;;;;;;;122.70;52.23;;;;;;;-4.21;63.76;100538.48;1751753;81;25625;-70
2022/03/03 02:34:35;;;;;;;119.25;53.15;;;;;;;-4.25;63.72;100533.31;1722236;81;27324;-70
2022/03/03 02:37:03;;;;;;;123.33;51.53;;;;;;;-4.37;63.78;100518.59;1687140;85;25432;-70
2022/03/03 02:39:29;;;;;;;130.00;53.80;;;;;;;-4.33;63.84;100532.20;1659756;85;25510;-70
2022/03/03 02:41:55;;;;;;;172.57;70.22;;;;;;;-4.37;63.86;100529.16;1687182;85;26173;-70
2022/03/03 02:44:22;;;;;;;157.62;65.37;;;;;;;-4.42;63.82;100531.59;1687184;85;25625;-70
2022/03/03 02:46:48;;;;;;;155.87;60.78;;;;;;;-4.47;63.92;100528.76;1687149;84;27990;-70
2022/03/03 02:49:15;;;;;;;133.25;56.48;;;;;;;-4.51;64.14;100517.79;1659456;85;25669;-70
2022/03/03 02:51:41;;;;;;;122.67;55.98;;;;;;;-4.53;64.20;100524.28;1687125;85;25569;-69
2022/03/03 02:54:08;;;;;;;133.90;54.93;;;;;;;-4.57;64.16;100527.83;1687103;85;25679;-70
2022/03/03 02:57:53;;;;;;;132.67;58.78;;;;;;;-4.57;64.43;100527.03;1687146;84;25654;-70
2022/03/03 02:59:03;;;;;;;126.33;53.90;;;;;;;-4.59;64.66;100531.70;1682988;85;27401;-69
2022/03/03 03:01:29;;;;;;;136.28;55.00;;;;;;;-4.62;64.62;100516.27;1687021;84;25552;-70
2022/03/03 03:03:56;;;;;;;130.93;55.52;;;;;;;-4.63;64.68;100525.19;1687143;85;25392;-69
2022/03/03 03:06:22;;;;;;;130.03;53.30;;;;;;;-4.65;64.73;100524.07;1687131;85;25622;-70
2022/03/03 03:08:49;;;;;;;130.87;56.70;;;;;;;-4.66;64.85;100518.50;1687151;85;25755;-70
2022/03/03 03:11:15;;;;;;;136.22;58.92;;;;;;;-4.71;65.00;100513.83;1687113;85;27409;-70
2022/03/03 03:13:41;;;;;;;140.45;56.95;;;;;;;-4.72;65.05;100515.34;1659545;85;25466;-70
2022/03/03 03:16:08;;;;;;;131.43;57.25;;;;;;;-4.76;65.14;100512.30;1659701;85;25504;-70
2022/03/03 03:18:34;;;;;;;127.25;54.60;;;;;;;-4.80;65.04;100506.30;1659656;85;25729;-70
2022/03/03 03:21:01;;;;;;;123.67;51.10;;;;;;;-4.82;65.15;100507.02;1687095;85;25575;-70
2022/03/03 03:23:27;;;;;;;114.32;50.15;;;;;;;-4.84;65.26;100504.58;1687098;85;27366;-70
2022/03/03 03:25:55;;;;;;;113.72;51.42;;;;;;;-4.88;65.07;100500.21;1674579;85;25539;-70
2022/03/03 03:28:21;;;;;;;109.00;49.50;;;;;;;-4.89;65.41;100499.09;1672144;85;25635;-70
2022/03/03 03:30:48;;;;;;;122.00;50.75;;;;;;;-4.93;65.49;100500.00;1652660;85;25828;-70
2022/03/03 03:33:14;;;;;;;126.70;52.73;;;;;;;-4.96;65.55;100491.17;1672258;85;25424;-70
2022/03/03 03:35:41;;;;;;;115.08;49.93;;;;;;;-4.97;65.67;100490.88;1672188;85;27287;-69
2022/03/03 03:38:07;;;;;;;112.32;47.75;;;;;;;-4.99;65.75;100490.24;1715037;82;25587;-69
2022/03/03 03:40:34;;;;;;;117.28;49.18;;;;;;;-5.01;65.22;100492.80;1735785;82;25567;-69
2022/03/03 03:43:01;;;;;;;120.20;49.10;;;;;;;-5.03;64.98;100485.08;1735727;82;25577;-70
2022/03/03 03:45:27;;;;;;;123.72;49.40;;;;;;;-5.04;65.30;100490.03;1735776;82;25615;-69
2022/03/03 03:47:54;;;;;;;106.83;49.20;;;;;;;-5.06;65.64;100496.02;1687748;84;27254;-69
2022/03/03 03:50:21;;;;;;;123.82;50.15;;;;;;;-5.08;65.94;100490.14;1687740;85;25613;-69
2022/03/03 03:52:47;;;;;;;115.45;48.55;;;;;;;-5.11;66.00;100482.62;1642221;85;25681;-70
2022/03/03 03:55:14;;;;;;;116.37;49.25;;;;;;;-5.14;66.05;100478.58;1687847;85;25789;-69
2022/03/03 03:57:41;;;;;;;117.87;51.05;;;;;;;-5.19;66.06;100473.09;1687921;85;25655;-69
2022/03/03 04:00:15;;;;;;;126.18;51.70;;;;;;;-5.20;66.31;100471.97;1687854;85;27702;-69
2022/03/03 04:02:46;;;;;;;113.80;50.60;;;;;;;-5.22;66.20;100464.77;1627681;88;25725;-70
2022/03/03 04:05:13;;;;;;;125.18;52.10;;;;;;;-5.24;66.46;100464.97;1627825;88;25508;-69
2022/03/03 04:07:41;;;;;;;125.27;49.70;;;;;;;-5.26;66.43;100476.23;1627783;88;26281;-71
2022/03/03 04:10:08;;;;;;;121.57;51.28;;;;;;;-5.29;66.42;100465.56;1606196;88;25538;-69
2022/03/03 04:12:34;;;;;;;107.27;48.17;;;;;;;-5.30;66.22;100465.24;1641726;86;27392;-69
2022/03/03 04:15:01;;;;;;;112.15;49.38;;;;;;;-5.32;65.40;100455.41;1654297;86;25731;-70
2022/03/03 04:17:27;;;;;;;109.45;51.65;;;;;;;-5.34;65.39;100452.16;1654579;86;25580;-70
2022/03/03 04:19:53;;;;;;;111.60;49.48;;;;;;;-5.35;66.34;100455.00;1654905;86;25612;-70
2022/03/03 04:22:20;;;;;;;124.33;51.85;;;;;;;-5.40;66.38;100456.91;1654727;86;25554;-70
2022/03/03 04:24:47;;;;;;;121.60;50.78;;;;;;;-5.45;66.41;100460.65;1647401;86;27316;-70
2022/03/03 04:27:14;;;;;;;113.75;48.05;;;;;;;-5.47;66.27;100460.04;1623900;87;25667;-68
2022/03/03 04:29:40;;;;;;;120.75;49.23;;;;;;;-5.50;66.41;100455.99;1624050;87;25520;-69
2022/03/03 04:32:09;;;;;;;116.82;49.55;;;;;;;-5.52;66.46;100459.83;1623965;88;25628;-69
2022/03/03 04:34:39;;;;;;;113.65;49.53;;;;;;;-5.58;66.47;100460.13;1692128;84;25670;-69
2022/03/03 04:37:05;;;;;;;112.70;50.03;;;;;;;-5.60;66.68;100460.00;1702357;84;27299;-69
2022/03/03 04:39:33;;;;;;;113.92;48.58;;;;;;;-5.64;66.82;100456.95;1702314;83;25434;-69
2022/03/03 04:42:00;;;;;;;123.90;51.45;;;;;;;-5.67;67.01;100459.49;1702324;83;25550;-71
2022/03/03 04:44:27;;;;;;;120.97;48.52;;;;;;;-5.70;66.82;100459.88;1702220;84;25692;-69
2022/03/03 04:46:54;;;;;;;123.02;49.70;;;;;;;-5.73;66.79;100455.00;1702353;84;25449;-69
2022/03/03 04:49:21;;;;;;;107.27;47.53;;;;;;;-5.73;66.46;100454.19;1702282;84;27458;-69
2022/03/03 04:51:47;;;;;;;121.42;47.90;;;;;;;-5.74;66.68;100452.55;1702339;84;25567;-69
2022/03/03 04:54:13;;;;;;;121.15;49.85;;;;;;;-5.76;66.60;100448.00;1641244;87;25639;-69
2022/03/03 04:56:40;;;;;;;117.97;49.38;;;;;;;-5.78;66.82;100438.97;1641295;87;25671;-69
2022/03/03 04:59:07;;;;;;;108.70;48.33;;;;;;;-5.81;66.49;100441.98;1702431;84;25385;-70
2022/03/03 05:01:34;;;;;;;114.90;49.10;;;;;;;-5.82;65.94;100445.14;1702427;83;29595;-70
2022/03/03 05:04:01;;;;;;;119.62;48.75;;;;;;;-5.84;66.22;100440.58;1641363;87;25728;-69
2022/03/03 05:06:27;;;;;;;112.50;47.75;;;;;;;-5.85;66.53;100438.14;1641402;87;25660;-69
2022/03/03 05:08:54;;;;;;;116.37;49.60;;;;;;;-5.87;66.62;100438.33;1641377;86;25663;-69
2022/03/03 05:11:20;;;;;;;122.75;49.58;;;;;;;-5.91;66.78;100437.59;1641505;87;25472;-69
2022/03/03 05:13:48;;;;;;;111.97;49.53;;;;;;;-5.95;66.90;100434.55;1641339;87;27325;-69
2022/03/03 05:16:15;;;;;;;110.65;48.05;;;;;;;-5.96;67.10;100436.09;1641307;87;25645;-69
2022/03/03 05:18:42;;;;;;;108.65;48.13;;;;;;;-5.99;67.04;100435.16;1641430;87;25426;-69
2022/03/03 05:21:09;;;;;;;110.03;47.15;;;;;;;-6.02;66.99;100435.06;1641349;87;25807;-69
2022/03/03 05:23:35;;;;;;;115.52;49.88;;;;;;;-6.05;67.10;100431.50;1702488;84;25396;-69
2022/03/03 05:26:02;;;;;;;111.88;47.08;;;;;;;-6.09;67.07;100427.64;1725333;82;28110;-69
2022/03/03 05:28:29;;;;;;;125.45;50.50;;;;;;;-6.11;66.63;100427.84;1646296;86;26928;-69
2022/03/03 05:30:55;;;;;;;115.55;49.08;;;;;;;-6.10;66.78;100424.69;1693630;84;25610;-69
2022/03/03 05:33:22;;;;;;;114.17;49.67;;;;;;;-6.10;66.75;100420.22;1665610;86;27772;-70
2022/03/03 05:35:54;;;;;;;111.17;48.63;;;;;;;-6.10;67.14;100425.48;1664293;86;25659;-69
2022/03/03 05:38:20;;;;;;;108.85;47.35;;;;;;;-6.09;67.54;100427.13;1693391;84;28065;-70
2022/03/03 05:40:47;;;;;;;107.72;47.93;;;;;;;-6.08;67.47;100426.13;1693517;84;25747;-71
2022/03/03 05:43:14;;;;;;;114.08;47.95;;;;;;;-6.08;67.14;100427.45;1693688;84;25696;-70
2022/03/03 05:45:40;;;;;;;116.12;48.38;;;;;;;-6.07;67.21;100430.37;1665612;85;25659;-70
2022/03/03 05:48:07;;;;;;;105.32;46.68;;;;;;;-6.06;67.07;100425.42;1664257;86;25659;-70
2022/03/03 05:50:34;;;;;;;110.88;48.30;;;;;;;-6.02;67.48;100426.64;1693606;84;27351;-69
2022/03/03 05:53:01;;;;;;;102.90;46.48;;;;;;;-5.97;67.64;100432.65;1665545;86;25488;-69
2022/03/03 05:55:29;;;;;;;102.55;44.23;;;;;;;-5.95;67.47;100430.59;1693573;84;25503;-69
2022/03/03 05:57:59;;;;;;;112.70;47.53;;;;;;;-5.88;67.76;100430.11;1665553;86;25738;-68
2022/03/03 06:00:29;;;;;;;118.67;49.20;;;;;;;-5.83;67.73;100427.70;1693755;84;25565;-70
2022/03/03 06:02:56;;;;;;;110.75;48.75;;;;;;;-5.75;68.19;100424.09;1665595;86;27380;-70
2022/03/03 06:05:28;;;;;;;118.55;50.33;;;;;;;-5.69;68.36;100416.69;1646265;86;25678;-70
2022/03/03 06:08:06;;;;;;;106.63;48.68;;;;;;;-5.60;68.58;100423.09;1693606;84;25422;-69
2022/03/03 06:10:35;;;;;;;114.57;47.73;;;;;;;-5.51;68.83;100422.72;1665604;86;26201;-69
2022/03/03 06:13:07;;;;;;;114.88;48.85;;;;;;;-5.42;68.81;100423.34;1693628;84;25630;-69
2022/03/03 06:15:37;;;;;;;107.78;49.88;;;;;;;-5.33;68.84;100423.48;1665643;86;27323;-69
2022/03/03 06:18:04;;;;;;;113.32;50.33;;;;;;;-5.23;69.17;100419.10;1664092;86;25615;-69
2022/03/03 06:20:32;;;;;;;117.47;49.70;;;;;;;-5.09;69.68;100413.33;1693562;84;25561;-70
2022/03/03 06:22:58;;;;;;;108.57;47.58;;;;;;;-4.95;70.03;100421.56;1665578;86;25689;-70
2022/03/03 06:25:25;;;;;;;116.70;49.65;;;;;;;-4.77;70.07;100430.16;1665960;85;25568;-70
2022/03/03 06:27:52;;;;;;;111.52;50.25;;;;;;;-4.61;69.85;100432.11;1662547;85;27406;-70
2022/03/03 06:30:19;;;;;;;115.65;49.48;;;;;;;-4.47;69.90;100422.33;1717097;82;25709;-69
2022/03/03 06:32:46;;;;;;;118.33;50.70;;;;;;;-4.31;70.05;100419.22;1737952;81;25412;-69
2022/03/03 06:35:13;;;;;;;111.62;49.10;;;;;;;-4.16;69.90;100421.62;1737884;82;25710;-70
2022/03/03 06:37:42;;;;;;;114.20;48.70;;;;;;;-4.00;69.72;100420.34;1737928;82;25600;-70
2022/03/03 06:40:10;;;;;;;107.43;47.75;;;;;;;-3.82;69.90;100423.63;1734860;82;27373;-69
2022/03/03 06:42:37;;;;;;;108.75;48.42;;;;;;;-3.60;70.74;100425.45;1673994;85;25581;-69
2022/03/03 06:45:08;;;;;;;125.15;50.50;;;;;;;-3.30;71.24;100427.50;1682710;85;25408;-70
2022/03/03 06:47:34;;;;;;;111.37;47.43;;;;;;;-2.95;71.20;100420.44;1682561;85;25683;-70
2022/03/03 06:50:02;;;;;;;104.03;47.58;;;;;;;-2.55;71.76;100425.39;1682644;85;25642;-69
2022/03/03 06:52:33;;;;;;;99.42;46.75;;;;;;;-2.14;71.57;100427.91;1674063;85;27287;-69
2022/03/03 06:55:01;;;;;;;101.92;47.58;;;;;;;-1.73;71.23;100427.20;1662625;85;26568;-70
2022/03/03 06:57:29;;;;;;;103.20;48.75;;;;;;;-1.30;70.55;100424.06;1674211;85;25654;-71
2022/03/03 07:00:00;;;;;;;115.50;48.92;;;;;;;-0.86;70.42;100427.25;1682604;85;25731;-71
2022/03/03 07:02:27;;;;;;;114.95;51.73;;;;;;;-0.43;69.67;100427.42;1674065;85;25585;-70
2022/03/03 07:04:56;;;;;;;103.87;54.80;;;;;;;0.02;69.31;100430.47;1682587;85;27317;-70
2022/03/03 07:07:24;;;;;;;112.97;54.83;;;;;;;0.45;68.35;100425.20;1682655;85;33751;-70
2022/03/03 07:09:51;;;;;;;113.45;55.43;;;;;;;0.80;67.17;100426.86;1682627;85;25559;-71
2022/03/03 07:12:18;;;;;;;115.92;53.60;;;;;;;1.11;66.59;100427.65;1682567;85;25631;-70
2022/03/03 07:14:45;;;;;;;115.37;55.58;;;;;;;1.53;66.33;100429.05;1674067;85;25596;-70
2022/03/03 07:17:51;;;;;;;110.63;54.15;;;;;;;1.98;66.04;100421.92;1662718;85;27358;-70
2022/03/03 07:20:34;;;;;;;109.97;50.38;;;;;;;2.44;65.18;100427.77;1673983;85;25590;-71
2022/03/03 07:23:27;;;;;;;105.50;52.58;;;;;;;3.00;63.56;100432.83;1631580;87;25536;-72
2022/03/03 07:25:56;;;;;;;101.27;50.43;;;;;;;3.39;62.57;100427.75;1644438;86;25618;-70
2022/03/03 07:28:25;;;;;;;96.90;48.73;;;;;;;3.85;62.56;100424.82;1605098;89;25767;-72
2022/03/03 07:30:52;;;;;;;102.10;50.30;;;;;;;4.31;61.20;100420.17;1605099;89;27471;-71
2022/03/03 07:33:36;;;;;;;94.20;48.63;;;;;;;4.68;59.47;100418.64;1627119;87;25712;-72
2022/03/03 07:36:07;;;;;;;91.08;47.67;;;;;;;4.93;58.99;100416.23;1625685;88;25796;-72
2022/03/03 07:38:37;;;;;;;90.32;45.80;;;;;;;5.37;58.17;100426.41;1625808;87;25637;-72
2022/03/03 07:41:04;;;;;;;92.95;45.67;;;;;;;5.70;57.04;100417.47;1625615;88;25713;-72
2022/03/03 07:43:31;;;;;;;91.65;46.37;;;;;;;6.11;56.67;100424.05;1625665;88;27346;-73
2022/03/03 07:45:57;;;;;;;99.35;47.62;;;;;;;6.65;55.39;100418.39;1603946;88;25763;-71
2022/03/03 07:48:25;;;;;;;87.80;45.28;;;;;;;7.17;54.20;100428.20;1625655;88;25470;-72
2022/03/03 07:50:53;;;;;;;83.58;43.55;;;;;;;7.78;53.07;100431.64;1625637;88;25607;-72
2022/03/03 07:53:19;;;;;;;81.17;43.40;;;;;;;8.45;51.49;100429.48;1625555;88;25474;-72
2022/03/03 07:55:51;;;;;;;73.85;40.23;;;;;;;9.02;49.96;100419.98;1604154;88;27421;-72
2022/03/03 07:58:22;;;;;;;82.10;42.23;;;;;;;9.62;48.38;100431.90;1635983;85;25624;-72
2022/03/03 08:00:53;;;;;;;74.32;40.45;;;;;;;10.04;47.25;100428.09;1715728;81;25822;-70
2022/03/03 08:03:24;;;;;;;77.42;40.90;;;;;;;10.43;46.99;100428.67;1715154;83;25801;-71
2022/03/03 08:05:58;;;;;;;68.80;40.33;;;;;;;10.83;45.53;100431.00;1715144;83;25706;-71
2022/03/03 08:08:28;;;;;;;78.07;41.15;;;;;;;10.96;44.33;100425.83;1715258;83;27377;-71
2022/03/03 08:11:04;;;;;;;74.32;41.35;;;;;;;11.30;43.62;100421.73;1715126;81;25718;-71
2022/03/03 08:13:32;;;;;;;72.70;41.23;;;;;;;11.51;43.08;100420.64;1715318;83;25739;-71
2022/03/03 08:15:59;;;;;;;71.60;41.15;;;;;;;11.84;42.51;100416.24;1682553;84;25822;-71
2022/03/03 08:18:32;;;;;;;75.40;43.00;;;;;;;12.19;42.17;100421.77;1680124;85;25801;-72
2022/03/03 08:21:03;;;;;;;78.75;43.48;;;;;;;12.40;41.40;100421.97;1672041;85;27305;-71
2022/03/03 08:23:30;;;;;;;67.53;39.55;;;;;;;12.29;40.09;100416.86;1670841;85;25716;-70
2022/03/03 08:25:59;;;;;;;76.75;40.20;;;;;;;12.23;40.13;100409.19;1677360;84;25685;-70
2022/03/03 08:28:26;;;;;;;70.87;39.58;;;;;;;12.40;40.05;100411.91;1706213;84;25820;-71
2022/03/03 08:31:03;;;;;;;69.40;39.60;;;;;;;12.54;39.19;100404.19;1706172;84;25809;-70
2022/03/03 08:34:10;;;;;;;76.50;40.08;;;;;;;12.65;38.96;100397.30;1706043;83;27903;-70
2022/03/03 08:36:53;;;;;;;71.45;40.65;;;;;;;12.82;38.42;100400.56;1705564;84;25857;-71
2022/03/03 08:39:21;;;;;;;72.05;40.30;;;;;;;12.91;38.42;100391.86;1675727;84;25827;-71
2022/03/03 08:41:48;;;;;;;70.47;40.58;;;;;;;13.10;37.77;100399.64;1729774;82;25785;-70
2022/03/03 08:44:17;;;;;;;74.67;40.33;;;;;;;13.15;37.11;100391.89;1684302;82;25841;-71
2022/03/03 08:46:45;;;;;;;70.72;38.40;;;;;;;13.13;37.06;100392.75;1666938;86;27386;-70
2022/03/03 08:49:14;;;;;;;69.80;40.12;;;;;;;13.17;36.88;100393.15;1666877;86;25751;-70
2022/03/03 08:51:41;;;;;;;76.37;40.65;;;;;;;13.29;36.42;100387.61;1667128;86;25723;-69
2022/03/03 08:54:08;;;;;;;68.47;38.88;;;;;;;13.31;36.15;100388.08;1666939;86;27764;-70
2022/03/03 08:56:35;;;;;;;72.30;38.10;;;;;;;13.25;36.02;100392.91;1666868;85;26416;-70
2022/03/03 08:59:05;;;;;;;76.22;41.28;;;;;;;13.30;35.87;100392.72;1667013;85;26237;-69
2022/03/03 09:01:34;;;;;;;71.07;41.18;;;;;;;13.44;35.77;100390.61;1666801;86;25692;-71
2022/03/03 09:04:04;;;;;;;;;;;;;;;13.36;35.33;100391.44;1650213;86;25737;-68
2022/03/03 09:06:32;;;;;;;70.47;39.23;;;;;;;13.60;35.52;100395.50;1682598;85;25692;-70
2022/03/03 09:08:59;;;;;;;66.67;39.30;;;;;;;13.82;35.25;100387.10;1682619;85;25822;-70
2022/03/03 09:11:26;;;;;;;67.30;38.28;;;;;;;14.01;34.99;100383.95;1682593;85;27343;-69
2022/03/03 09:13:52;;;;;;;57.93;33.95;;;;;;;14.20;34.34;100385.42;1666907;85;25704;-69
2022/03/03 09:16:18;;;;;;;60.52;33.10;;;;;;;14.33;34.16;100385.70;1694880;84;25782;-69
2022/03/03 09:18:46;;;;;;;61.48;34.90;;;;;;;14.65;33.76;100380.68;1666934;86;27791;-69
2022/03/03 09:21:13;;;;;;;60.95;34.40;;;;;;;14.63;33.01;100384.30;1666966;85;25788;-70
2022/03/03 09:23:40;;;;;;;60.08;34.35;;;;;;;14.80;33.07;100379.27;1666882;86;27308;-70
2022/03/03 09:26:06;;;;;;;64.05;34.85;;;;;;;14.97;32.52;100381.02;1666788;86;25636;-70
2022/03/03 09:28:33;;;;;;;61.18;35.52;;;;;;;15.19;32.26;100378.46;1666823;86;25721;-69
2022/03/03 09:31:00;;;;;;;61.65;32.58;;;;;;;15.48;32.27;100376.11;1666970;86;25740;-70
2022/03/03 09:33:27;;;;;;;56.68;33.63;;;;;;;15.61;31.28;100381.56;1665739;86;25821;-70
2022/03/03 09:35:55;;;;;;;53.80;32.05;;;;;;;15.71;31.07;100383.04;1666739;86;27393;-71
2022/03/03 09:38:21;;;;;;;48.23;27.77;;;;;;;15.91;31.20;100388.97;1666532;86;25825;-69
2022/03/03 09:40:48;;;;;;;44.53;27.93;;;;;;;15.98;30.06;100381.58;1666611;86;25808;-69
2022/03/03 09:43:15;;;;;;;43.63;26.20;;;;;;;15.86;29.83;100373.62;1666568;86;26246;-71
2022/03/03 09:45:42;;;;;;;48.33;28.83;;;;;;;15.98;30.00;100373.39;1666315;86;25721;-70
2022/03/03 09:48:09;;;;;;;43.00;26.48;;;;;;;16.17;29.85;100375.51;1666465;85;27347;-70
2022/03/03 09:50:39;;;;;;;39.15;23.65;;;;;;;16.46;29.53;100378.49;1666714;86;25790;-70
2022/03/03 09:53:08;;;;;;;43.02;25.75;;;;;;;16.49;28.63;100378.38;1666722;86;25709;-70
2022/03/03 09:55:38;;;;;;;38.65;23.00;;;;;;;16.44;28.57;100376.11;1645735;86;25517;-70
2022/03/03 09:58:08;;;;;;;37.75;22.93;;;;;;;16.80;28.75;100379.86;1666939;86;25442;-70
2022/03/03 10:00:40;;;;;;;34.70;22.62;;;;;;;17.12;27.83;100375.82;1666874;86;27349;-70
2022/03/03 10:03:14;;;;;;;35.70;22.62;;;;;;;17.42;27.69;100375.41;1666579;86;25800;-70
2022/03/03 10:05:49;;;;;;;39.18;23.85;;;;;;;17.73;27.08;100368.31;1666141;85;25816;-71
2022/03/03 10:08:19;;;;;;;36.70;24.00;;;;;;;18.09;26.44;100367.78;1667208;85;25805;-71
2022/03/03 10:10:49;;;;;;;37.85;22.67;;;;;;;18.92;26.24;100366.13;1666809;86;25714;-71
2022/03/03 10:13:18;;;;;;;37.20;23.30;;;;;;;19.80;25.87;100363.06;1665460;86;27339;-70
2022/03/03 10:15:57;;;;;;;35.40;22.10;;;;;;;20.63;25.21;100356.70;1647259;86;25783;-70
2022/03/03 10:18:25;;;;;;;36.30;22.30;;;;;;;21.32;24.22;100361.47;1666930;86;25732;-70
2022/03/03 10:21:03;;;;;;;32.25;21.73;;;;;;;21.60;23.67;100352.09;1666619;86;25669;-71
2022/03/03 10:23:34;;;;;;;32.78;21.42;;;;;;;22.08;23.16;100346.28;1667004;86;25744;-71
2022/03/03 10:26:05;;;;;;;30.30;21.30;;;;;;;22.62;22.86;100352.81;1666966;86;27356;-72
2022/03/03 10:28:35;;;;;;;34.35;21.57;;;;;;;23.19;22.67;100349.96;1666474;85;25993;-69
2022/03/03 10:31:08;;;;;;;33.95;21.73;;;;;;;23.33;21.79;100344.45;1666793;86;25680;-71
2022/03/03 10:33:47;;;;;;;37.58;23.15;;;;;;;23.39;21.44;100348.38;1666726;86;26332;-71
2022/03/03 10:36:23;;;;;;;37.05;23.02;;;;;;;23.34;21.25;100348.00;1666651;86;25742;-70
2022/03/03 10:38:57;;;;;;;35.08;22.48;;;;;;;23.84;21.25;100350.13;1666774;85;28441;-71
2022/03/03 10:41:33;;;;;;;34.75;23.50;;;;;;;24.24;20.97;100350.77;1666643;85;26281;-71
2022/03/03 10:44:04;;;;;;;32.63;23.75;;;;;;;24.48;20.69;100353.05;1666696;85;25756;-71
2022/03/03 10:46:31;;;;;;;31.95;22.02;;;;;;;24.47;20.27;100354.23;1666561;86;26496;-71
2022/03/03 10:48:58;;;;;;;35.68;23.32;;;;;;;24.47;20.02;100352.27;1666620;86;25828;-71
2022/03/03 10:51:25;;;;;;;34.92;23.35;;;;;;;24.23;19.60;100355.34;1666833;86;27331;-72
2022/03/03 10:53:57;;;;;;;39.23;24.23;;;;;;;24.12;19.79;100353.20;1646094;86;25815;-71
2022/03/03 10:56:23;;;;;;;40.40;24.98;;;;;;;24.12;19.83;100344.31;1666431;86;25764;-71
2022/03/03 10:58:58;;;;;;;36.00;24.77;;;;;;;24.17;19.82;100345.28;1666697;86;25686;-71
2022/03/03 11:01:29;;;;;;;35.80;23.98;;;;;;;24.26;19.93;100350.98;1666651;86;25686;-71
2022/03/03 11:03:56;;;;;;;33.50;22.93;;;;;;;24.32;19.99;100345.23;1666437;85;28003;-71
2022/03/03 11:06:28;;;;;;;35.05;24.10;;;;;;;23.98;19.61;100350.68;1666478;86;25855;-71
2022/03/03 11:08:57;;;;;;;36.70;27.15;;;;;;;23.66;19.74;100345.98;1666850;86;25791;-71